sensor_id;sensor_type;location;lat;lon;timestamp;pressure;altitude;pressure_sealevel;temperature
64600;BMP280;6553;48.412;9.514;2022-08-19T00:01:54;72205.56;;;24.87
64600;BMP280;6553;48.412;9.514;2022-08-19T00:04:26;72195.06;;;24.85
64600;BMP280;6553;48.412;9.514;2022-08-19T00:06:53;72198.41;;;24.85
64600;BMP280;6553;48.412;9.514;2022-08-19T00:09:22;72200.00;;;24.87
64600;BMP280;6553;48.412;9.514;2022-08-19T00:11:49;72201.72;;;24.86
64600;BMP280;6553;48.412;9.514;2022-08-19T00:14:17;72197.88;;;24.85
64600;BMP280;6553;48.412;9.514;2022-08-19T00:16:46;72201.72;;;24.86
64600;BMP280;6553;48.412;9.514;2022-08-19T00:19:13;72191.88;;;24.82
64600;BMP280;6553;48.412;9.514;2022-08-19T00:21:39;72200.13;;;24.84
64600;BMP280;6553;48.412;9.514;2022-08-19T00:24:11;72195.22;;;24.82
64600;BMP280;6553;48.412;9.514;2022-08-19T00:26:38;72197.47;;;24.82
64600;BMP280;6553;48.412;9.514;2022-08-19T00:29:06;72194.56;;;24.84
64600;BMP280;6553;48.412;9.514;2022-08-19T00:31:33;72199.59;;;24.84
64600;BMP280;6553;48.412;9.514;2022-08-19T00:33:59;72195.22;;;24.82
64600;BMP280;6553;48.412;9.514;2022-08-19T00:36:25;72191.88;;;24.82
64600;BMP280;6553;48.412;9.514;2022-08-19T00:38:51;72201.84;;;24.83
64600;BMP280;6553;48.412;9.514;2022-08-19T00:41:21;72195.22;;;24.82
64600;BMP280;6553;48.412;9.514;2022-08-19T00:46:30;72190.81;;;24.81
64600;BMP280;6553;48.412;9.514;2022-08-19T00:48:59;72196.28;;;24.83
64600;BMP280;6553;48.412;9.514;2022-08-19T00:51:30;72190.69;;;24.83
64600;BMP280;6553;48.412;9.514;2022-08-19T00:53:59;72194.69;;;24.82
64600;BMP280;6553;48.412;9.514;2022-08-19T00:56:26;72194.13;;;24.81
64600;BMP280;6553;48.412;9.514;2022-08-19T00:58:56;72194.69;;;24.82
64600;BMP280;6553;48.412;9.514;2022-08-19T01:01:23;72200.78;;;24.82
64600;BMP280;6553;48.412;9.514;2022-08-19T01:03:50;72195.72;;;24.83
64600;BMP280;6553;48.412;9.514;2022-08-19T01:06:16;72194.13;;;24.81
64600;BMP280;6553;48.412;9.514;2022-08-19T01:08:42;72195.34;;;24.79
64600;BMP280;6553;48.412;9.514;2022-08-19T01:11:08;72193.09;;;24.80
64600;BMP280;6553;48.412;9.514;2022-08-19T01:13:36;72191.88;;;24.82
64600;BMP280;6553;48.412;9.514;2022-08-19T01:16:07;72193.63;;;24.81
64600;BMP280;6553;48.412;9.514;2022-08-19T01:18:39;72192.00;;;24.79
64600;BMP280;6553;48.412;9.514;2022-08-19T01:21:18;72194.13;;;24.81
64600;BMP280;6553;48.412;9.514;2022-08-19T01:23:47;72191.50;;;24.78
64600;BMP280;6553;48.412;9.514;2022-08-19T01:26:22;72196.41;;;24.81
64600;BMP280;6553;48.412;9.514;2022-08-19T01:28:53;72192.53;;;24.79
64600;BMP280;6553;48.412;9.514;2022-08-19T01:31:25;72194.28;;;24.78
64600;BMP280;6553;48.412;9.514;2022-08-19T01:33:55;72194.78;;;24.79
64600;BMP280;6553;48.412;9.514;2022-08-19T01:36:32;72185.91;;;24.78
64600;BMP280;6553;48.412;9.514;2022-08-19T01:39:01;72190.28;;;24.80
64600;BMP280;6553;48.412;9.514;2022-08-19T01:41:27;72191.50;;;24.78
64600;BMP280;6553;48.412;9.514;2022-08-19T01:43:53;72189.34;;;24.76
64600;BMP280;6553;48.412;9.514;2022-08-19T01:46:19;72188.16;;;24.78
64600;BMP280;6553;48.412;9.514;2022-08-19T01:48:46;72196.00;;;24.77
64600;BMP280;6553;48.412;9.514;2022-08-19T01:51:13;72185.38;;;24.78
64600;BMP280;6553;48.412;9.514;2022-08-19T01:53:40;72185.50;;;24.75
64600;BMP280;6553;48.412;9.514;2022-08-19T01:56:07;72184.31;;;24.77
64600;BMP280;6553;48.412;9.514;2022-08-19T01:58:49;72190.03;;;24.74
64600;BMP280;6553;48.412;9.514;2022-08-19T02:01:17;72185.91;;;24.78
64600;BMP280;6553;48.412;9.514;2022-08-19T02:03:43;72188.16;;;24.78
64600;BMP280;6553;48.412;9.514;2022-08-19T02:06:09;72189.91;;;24.77
64600;BMP280;6553;48.412;9.514;2022-08-19T02:08:38;72185.09;;;24.72
64600;BMP280;6553;48.412;9.514;2022-08-19T02:11:05;72188.81;;;24.76
64600;BMP280;6553;48.412;9.514;2022-08-19T02:13:33;72194.94;;;24.76
64600;BMP280;6553;48.412;9.514;2022-08-19T02:15:59;72189.91;;;24.77
64600;BMP280;6553;48.412;9.514;2022-08-19T02:18:25;72189.34;;;24.76
64600;BMP280;6553;48.412;9.514;2022-08-19T02:20:52;72183.25;;;24.76
64600;BMP280;6553;48.412;9.514;2022-08-19T02:23:18;72187.75;;;24.75
64600;BMP280;6553;48.412;9.514;2022-08-19T02:25:46;72191.59;;;24.76
64600;BMP280;6553;48.412;9.514;2022-08-19T02:28:13;72186.03;;;24.76
64600;BMP280;6553;48.412;9.514;2022-08-19T02:30:41;72188.28;;;24.75
64600;BMP280;6553;48.412;9.514;2022-08-19T02:33:07;72190.56;;;24.75
64600;BMP280;6553;48.412;9.514;2022-08-19T02:35:33;72190.03;;;24.74
64600;BMP280;6553;48.412;9.514;2022-08-19T02:37:59;72191.06;;;24.75
64600;BMP280;6553;48.412;9.514;2022-08-19T02:41:00;72184.44;;;24.74
64600;BMP280;6553;48.412;9.514;2022-08-19T02:43:28;72185.63;;;24.73
64600;BMP280;6553;48.412;9.514;2022-08-19T02:45:54;72179.50;;;24.72
64600;BMP280;6553;48.412;9.514;2022-08-19T02:48:23;72182.19;;;24.75
64600;BMP280;6553;48.412;9.514;2022-08-19T02:50:52;72184.44;;;24.74
64600;BMP280;6553;48.412;9.514;2022-08-19T02:53:26;72186.56;;;24.76
64600;BMP280;6553;48.412;9.514;2022-08-19T02:55:53;72182.69;;;24.75
64600;BMP280;6553;48.412;9.514;2022-08-19T02:58:20;72188.28;;;24.75
64600;BMP280;6553;48.412;9.514;2022-08-19T03:00:55;72186.16;;;24.73
64600;BMP280;6553;48.412;9.514;2022-08-19T03:03:21;72186.84;;;24.71
64600;BMP280;6553;48.412;9.514;2022-08-19T03:05:47;72185.63;;;24.73
64600;BMP280;6553;48.412;9.514;2022-08-19T03:08:14;72183.91;;;24.74
64600;BMP280;6553;48.412;9.514;2022-08-19T03:10:43;72187.34;;;24.72
64600;BMP280;6553;48.412;9.514;2022-08-19T03:13:14;72186.28;;;24.71
64600;BMP280;6553;48.412;9.514;2022-08-19T03:15:44;72185.09;;;24.72
64600;BMP280;6553;48.412;9.514;2022-08-19T03:18:11;72187.34;;;24.72
64600;BMP280;6553;48.412;9.514;2022-08-19T03:20:46;72184.56;;;24.72
64600;BMP280;6553;48.412;9.514;2022-08-19T03:23:13;72185.09;;;24.72
64600;BMP280;6553;48.412;9.514;2022-08-19T03:25:43;72182.97;;;24.70
64600;BMP280;6553;48.412;9.514;2022-08-19T03:28:11;72184.56;;;24.72
64600;BMP280;6553;48.412;9.514;2022-08-19T03:30:38;72189.63;;;24.71
64600;BMP280;6553;48.412;9.514;2022-08-19T03:33:07;72184.56;;;24.72
64600;BMP280;6553;48.412;9.514;2022-08-19T03:35:33;72184.03;;;24.71
64600;BMP280;6553;48.412;9.514;2022-08-19T03:38:05;72187.34;;;24.72
64600;BMP280;6553;48.412;9.514;2022-08-19T03:40:36;72187.34;;;24.72
64600;BMP280;6553;48.412;9.514;2022-08-19T03:43:02;72183.63;;;24.68
64600;BMP280;6553;48.412;9.514;2022-08-19T03:45:29;72181.25;;;24.71
64600;BMP280;6553;48.412;9.514;2022-08-19T03:47:55;72178.47;;;24.71
64600;BMP280;6553;48.412;9.514;2022-08-19T03:50:21;72182.44;;;24.70
64600;BMP280;6553;48.412;9.514;2022-08-19T03:52:52;72181.91;;;24.69
64600;BMP280;6553;48.412;9.514;2022-08-19T03:55:19;72182.97;;;24.70
64600;BMP280;6553;48.412;9.514;2022-08-19T03:57:44;72181.38;;;24.69
64600;BMP280;6553;48.412;9.514;2022-08-19T04:00:12;72180.19;;;24.70
64600;BMP280;6553;48.412;9.514;2022-08-19T04:02:38;72182.44;;;24.70
64600;BMP280;6553;48.412;9.514;2022-08-19T04:05:04;72180.31;;;24.68
64600;BMP280;6553;48.412;9.514;2022-08-19T04:07:30;72181.91;;;24.69
64600;BMP280;6553;48.412;9.514;2022-08-19T04:09:56;72181.38;;;24.69
64600;BMP280;6553;48.412;9.514;2022-08-19T04:12:22;72182.56;;;24.67
64600;BMP280;6553;48.412;9.514;2022-08-19T04:14:48;72175.25;;;24.68
64600;BMP280;6553;48.412;9.514;2022-08-19T04:17:14;72181.91;;;24.69
64600;BMP280;6553;48.412;9.514;2022-08-19T04:19:40;72183.63;;;24.68
64600;BMP280;6553;48.412;9.514;2022-08-19T04:22:06;72180.31;;;24.68
64600;BMP280;6553;48.412;9.514;2022-08-19T04:24:34;72177.00;;;24.67
64600;BMP280;6553;48.412;9.514;2022-08-19T04:27:01;72181.91;;;24.69
64600;BMP280;6553;48.412;9.514;2022-08-19T04:29:28;72178.03;;;24.68
64600;BMP280;6553;48.412;9.514;2022-08-19T04:31:56;72180.31;;;24.68
64600;BMP280;6553;48.412;9.514;2022-08-19T04:34:25;72182.72;;;24.65
64600;BMP280;6553;48.412;9.514;2022-08-19T04:36:54;72185.38;;;24.67
64600;BMP280;6553;48.412;9.514;2022-08-19T04:39:25;72178.72;;;24.66
64600;BMP280;6553;48.412;9.514;2022-08-19T04:42:17;72177.53;;;24.68
64600;BMP280;6553;48.412;9.514;2022-08-19T04:45:02;72179.78;;;24.67
64600;BMP280;6553;48.412;9.514;2022-08-19T04:47:29;72180.84;;;24.68
64600;BMP280;6553;48.412;9.514;2022-08-19T04:49:57;72184.31;;;24.66
64600;BMP280;6553;48.412;9.514;2022-08-19T04:52:23;72175.94;;;24.66
64600;BMP280;6553;48.412;9.514;2022-08-19T04:54:48;72179.78;;;24.67
64600;BMP280;6553;48.412;9.514;2022-08-19T04:57:14;72180.84;;;24.68
64600;BMP280;6553;48.412;9.514;2022-08-19T04:59:40;72173.66;;;24.67
64600;BMP280;6553;48.412;9.514;2022-08-19T05:02:08;72180.84;;;24.68
64600;BMP280;6553;48.412;9.514;2022-08-19T05:04:35;72174.34;;;24.65
64600;BMP280;6553;48.412;9.514;2022-08-19T05:07:04;72178.31;;;24.63
64600;BMP280;6553;48.412;9.514;2022-08-19T05:09:30;72177.00;;;24.67
64600;BMP280;6553;48.412;9.514;2022-08-19T05:11:56;72178.31;;;24.63
64600;BMP280;6553;48.412;9.514;2022-08-19T05:14:21;72177.66;;;24.65
64600;BMP280;6553;48.412;9.514;2022-08-19T05:16:48;72178.72;;;24.66
64600;BMP280;6553;48.412;9.514;2022-08-19T05:19:14;72176.59;;;24.64
64600;BMP280;6553;48.412;9.514;2022-08-19T05:22:00;72175.94;;;24.66
64600;BMP280;6553;48.412;9.514;2022-08-19T05:24:44;72177.66;;;24.65
64600;BMP280;6553;48.412;9.514;2022-08-19T05:27:10;72178.72;;;24.66
64600;BMP280;6553;48.412;9.514;2022-08-19T05:29:36;72178.84;;;24.64
64600;BMP280;6553;48.412;9.514;2022-08-19T05:32:04;72180.44;;;24.65
64600;BMP280;6553;48.412;9.514;2022-08-19T05:34:31;72177.66;;;24.65
64600;BMP280;6553;48.412;9.514;2022-08-19T05:37:00;72180.44;;;24.65
64600;BMP280;6553;48.412;9.514;2022-08-19T05:39:31;72178.19;;;24.66
64600;BMP280;6553;48.412;9.514;2022-08-19T05:42:02;72177.66;;;24.65
64600;BMP280;6553;48.412;9.514;2022-08-19T05:44:31;72181.63;;;24.64
64600;BMP280;6553;48.412;9.514;2022-08-19T05:46:59;72178.31;;;24.63
64600;BMP280;6553;48.412;9.514;2022-08-19T05:49:26;72174.34;;;24.65
64600;BMP280;6553;48.412;9.514;2022-08-19T05:51:53;72172.88;;;24.61
64600;BMP280;6553;48.412;9.514;2022-08-19T05:54:22;72176.59;;;24.64
64600;BMP280;6553;48.412;9.514;2022-08-19T05:56:52;72175.53;;;24.63
64600;BMP280;6553;48.412;9.514;2022-08-19T05:59:19;72175.53;;;24.63
64600;BMP280;6553;48.412;9.514;2022-08-19T06:01:49;72172.72;;;24.63
64600;BMP280;6553;48.412;9.514;2022-08-19T06:04:21;72175.53;;;24.63
64600;BMP280;6553;48.412;9.514;2022-08-19T06:06:52;72175.53;;;24.63
64600;BMP280;6553;48.412;9.514;2022-08-19T06:09:20;72179.38;;;24.64
64600;BMP280;6553;48.412;9.514;2022-08-19T06:11:50;72172.72;;;24.63
64600;BMP280;6553;48.412;9.514;2022-08-19T06:14:25;72174.47;;;24.62
64600;BMP280;6553;48.412;9.514;2022-08-19T06:16:51;72173.38;;;24.61
64600;BMP280;6553;48.412;9.514;2022-08-19T06:19:22;72172.34;;;24.60
64600;BMP280;6553;48.412;9.514;2022-08-19T06:21:51;72177.78;;;24.63
64600;BMP280;6553;48.412;9.514;2022-08-19T06:24:21;72176.72;;;24.62
64600;BMP280;6553;48.412;9.514;2022-08-19T06:26:51;72177.78;;;24.63
64600;BMP280;6553;48.412;9.514;2022-08-19T06:29:20;72171.13;;;24.62
64600;BMP280;6553;48.412;9.514;2022-08-19T06:31:53;72173.94;;;24.62
64600;BMP280;6553;48.412;9.514;2022-08-19T06:34:20;72173.38;;;24.61
64600;BMP280;6553;48.412;9.514;2022-08-19T06:36:49;72170.59;;;24.61
64600;BMP280;6553;48.412;9.514;2022-08-19T06:39:29;72170.59;;;24.61
64600;BMP280;6553;48.412;9.514;2022-08-19T06:42:00;72168.88;;;24.62
64600;BMP280;6553;48.412;9.514;2022-08-19T06:44:30;72172.22;;;24.63
64600;BMP280;6553;48.412;9.514;2022-08-19T06:47:03;72174.47;;;24.62
64600;BMP280;6553;48.412;9.514;2022-08-19T06:49:30;72170.59;;;24.61
64600;BMP280;6553;48.412;9.514;2022-08-19T06:52:00;72177.25;;;24.62
64600;BMP280;6553;48.412;9.514;2022-08-19T06:54:27;72173.94;;;24.62
64600;BMP280;6553;48.412;9.514;2022-08-19T06:56:57;72170.22;;;24.58
64600;BMP280;6553;48.412;9.514;2022-08-19T06:59:24;72165.00;;;24.61
64600;BMP280;6553;48.412;9.514;2022-08-19T07:01:56;72178.97;;;24.61
64600;BMP280;6553;48.412;9.514;2022-08-19T07:04:29;72171.13;;;24.62
64600;BMP280;6553;48.412;9.514;2022-08-19T07:07:01;72173.38;;;24.61
64600;BMP280;6553;48.412;9.514;2022-08-19T07:09:28;72178.47;;;24.61
64600;BMP280;6553;48.412;9.514;2022-08-19T07:11:55;72172.34;;;24.60
64600;BMP280;6553;48.412;9.514;2022-08-19T07:14:25;72167.28;;;24.61
64600;BMP280;6553;48.412;9.514;2022-08-19T07:16:54;72172.88;;;24.61
64600;BMP280;6553;48.412;9.514;2022-08-19T07:19:22;72167.28;;;24.61
64600;BMP280;6553;48.412;9.514;2022-08-19T07:21:50;72165.69;;;24.59
64600;BMP280;6553;48.412;9.514;2022-08-19T07:24:20;72170.22;;;24.58
64600;BMP280;6553;48.412;9.514;2022-08-19T07:26:46;72174.06;;;24.59
64600;BMP280;6553;48.412;9.514;2022-08-19T07:29:12;72168.50;;;24.59
64600;BMP280;6553;48.412;9.514;2022-08-19T07:31:38;72170.22;;;24.58
64600;BMP280;6553;48.412;9.514;2022-08-19T07:34:06;72167.41;;;24.58
64600;BMP280;6553;48.412;9.514;2022-08-19T07:36:35;72167.41;;;24.58
64600;BMP280;6553;48.412;9.514;2022-08-19T07:39:07;72173.53;;;24.59
64600;BMP280;6553;48.412;9.514;2022-08-19T07:41:35;72164.09;;;24.58
64600;BMP280;6553;48.412;9.514;2022-08-19T07:44:05;72170.75;;;24.59
64600;BMP280;6553;48.412;9.514;2022-08-19T07:46:35;72167.94;;;24.59
64600;BMP280;6553;48.412;9.514;2022-08-19T07:49:05;72172.47;;;24.58
64600;BMP280;6553;48.412;9.514;2022-08-19T07:51:32;72171.28;;;24.59
64600;BMP280;6553;48.412;9.514;2022-08-19T07:53:57;72168.50;;;24.59
64600;BMP280;6553;48.412;9.514;2022-08-19T07:56:24;72173.53;;;24.59
64600;BMP280;6553;48.412;9.514;2022-08-19T07:58:51;72173.38;;;24.61
64600;BMP280;6553;48.412;9.514;2022-08-19T08:01:22;72173.53;;;24.59
64600;BMP280;6553;48.412;9.514;2022-08-19T08:03:50;72170.59;;;24.61
64600;BMP280;6553;48.412;9.514;2022-08-19T08:06:35;72170.22;;;24.58
64600;BMP280;6553;48.412;9.514;2022-08-19T08:09:34;72171.78;;;24.60
64600;BMP280;6553;48.412;9.514;2022-08-19T08:12:09;72171.78;;;24.60
64600;BMP280;6553;48.412;9.514;2022-08-19T08:14:58;72170.09;;;24.61
64600;BMP280;6553;48.412;9.514;2022-08-19T08:17:29;72169.53;;;24.60
64600;BMP280;6553;48.412;9.514;2022-08-19T08:19:56;72170.09;;;24.61
64600;BMP280;6553;48.412;9.514;2022-08-19T08:22:24;72175.13;;;24.60
64600;BMP280;6553;48.412;9.514;2022-08-19T08:25:13;72166.22;;;24.60
64600;BMP280;6553;48.412;9.514;2022-08-19T08:27:43;72169.16;;;24.57
64600;BMP280;6553;48.412;9.514;2022-08-19T08:30:20;72167.41;;;24.58
64600;BMP280;6553;48.412;9.514;2022-08-19T08:32:48;72174.06;;;24.59
64600;BMP280;6553;48.412;9.514;2022-08-19T08:35:17;72171.13;;;24.62
64600;BMP280;6553;48.412;9.514;2022-08-19T08:37:46;72167.28;;;24.61
64600;BMP280;6553;48.412;9.514;2022-08-19T08:43:17;72167.41;;;24.58
64600;BMP280;6553;48.412;9.514;2022-08-19T08:49:22;72171.28;;;24.59
64600;BMP280;6553;48.412;9.514;2022-08-19T08:52:15;72181.75;;;24.61
64600;BMP280;6553;48.412;9.514;2022-08-19T08:54:46;72178.47;;;24.61
64600;BMP280;6553;48.412;9.514;2022-08-19T08:57:32;72171.13;;;24.62
64600;BMP280;6553;48.412;9.514;2022-08-19T09:00:06;72173.38;;;24.61
64600;BMP280;6553;48.412;9.514;2022-08-19T09:02:33;72167.28;;;24.61
64600;BMP280;6553;48.412;9.514;2022-08-19T09:04:59;72169.69;;;24.58
64600;BMP280;6553;48.412;9.514;2022-08-19T09:13:17;72172.34;;;24.60
64600;BMP280;6553;48.412;9.514;2022-08-19T09:15:54;72171.28;;;24.59
64600;BMP280;6553;48.412;9.514;2022-08-19T09:18:22;72171.28;;;24.59
64600;BMP280;6553;48.412;9.514;2022-08-19T09:20:48;72170.75;;;24.59
64600;BMP280;6553;48.412;9.514;2022-08-19T09:23:14;72171.41;;;24.57
64600;BMP280;6553;48.412;9.514;2022-08-19T09:25:40;72165.16;;;24.59
64600;BMP280;6553;48.412;9.514;2022-08-19T09:28:07;72173.00;;;24.58
64600;BMP280;6553;48.412;9.514;2022-08-19T09:30:40;72171.28;;;24.59
64600;BMP280;6553;48.412;9.514;2022-08-19T09:33:07;72168.63;;;24.57
64600;BMP280;6553;48.412;9.514;2022-08-19T09:35:33;72168.50;;;24.59
64600;BMP280;6553;48.412;9.514;2022-08-19T09:38:00;72173.66;;;24.56
64600;BMP280;6553;48.412;9.514;2022-08-19T09:40:28;72169.69;;;24.58
64600;BMP280;6553;48.412;9.514;2022-08-19T09:42:54;72166.34;;;24.57
64600;BMP280;6553;48.412;9.514;2022-08-19T09:45:21;72166.34;;;24.57
64600;BMP280;6553;48.412;9.514;2022-08-19T09:47:49;72169.16;;;24.57
64600;BMP280;6553;48.412;9.514;2022-08-19T09:50:17;72165.16;;;24.59
64600;BMP280;6553;48.412;9.514;2022-08-19T09:52:44;72161.44;;;24.55
64600;BMP280;6553;48.412;9.514;2022-08-19T09:55:12;72167.41;;;24.58
64600;BMP280;6553;48.412;9.514;2022-08-19T09:57:38;72163.03;;;24.57
64600;BMP280;6553;48.412;9.514;2022-08-19T10:00:07;72170.22;;;24.58
64600;BMP280;6553;48.412;9.514;2022-08-19T10:02:35;72172.59;;;24.55
64600;BMP280;6553;48.412;9.514;2022-08-19T10:05:01;72173.53;;;24.59
64600;BMP280;6553;48.412;9.514;2022-08-19T10:07:46;72169.69;;;24.58
64600;BMP280;6553;48.412;9.514;2022-08-19T10:10:12;72169.69;;;24.58
64600;BMP280;6553;48.412;9.514;2022-08-19T10:12:38;72165.28;;;24.56
64600;BMP280;6553;48.412;9.514;2022-08-19T10:15:05;72175.78;;;24.58
64600;BMP280;6553;48.412;9.514;2022-08-19T10:17:32;72168.63;;;24.57
64600;BMP280;6553;48.412;9.514;2022-08-19T10:20:01;72172.47;;;24.58
64600;BMP280;6553;48.412;9.514;2022-08-19T10:22:29;72170.22;;;24.58
64600;BMP280;6553;48.412;9.514;2022-08-19T10:24:55;72170.88;;;24.56
64600;BMP280;6553;48.412;9.514;2022-08-19T10:27:22;72166.91;;;24.58
64600;BMP280;6553;48.412;9.514;2022-08-19T10:29:48;72166.91;;;24.58
64600;BMP280;6553;48.412;9.514;2022-08-19T10:32:14;72169.16;;;24.57
64600;BMP280;6553;48.412;9.514;2022-08-19T10:34:40;72165.81;;;24.57
64600;BMP280;6553;48.412;9.514;2022-08-19T10:37:06;72169.69;;;24.58
64600;BMP280;6553;48.412;9.514;2022-08-19T10:39:35;72173.00;;;24.58
64600;BMP280;6553;48.412;9.514;2022-08-19T10:42:08;72173.00;;;24.58
64600;BMP280;6553;48.412;9.514;2022-08-19T10:44:36;72169.16;;;24.57
64600;BMP280;6553;48.412;9.514;2022-08-19T10:47:02;72169.69;;;24.58
64600;BMP280;6553;48.412;9.514;2022-08-19T10:49:29;72169.16;;;24.57
64600;BMP280;6553;48.412;9.514;2022-08-19T10:51:56;72160.91;;;24.55
64600;BMP280;6553;48.412;9.514;2022-08-19T10:54:40;72173.66;;;24.56
64600;BMP280;6553;48.412;9.514;2022-08-19T10:57:25;72171.41;;;24.57
64600;BMP280;6553;48.412;9.514;2022-08-19T10:59:55;72168.63;;;24.57
64600;BMP280;6553;48.412;9.514;2022-08-19T11:02:21;72166.34;;;24.57
64600;BMP280;6553;48.412;9.514;2022-08-19T11:04:47;72166.47;;;24.55
64600;BMP280;6553;48.412;9.514;2022-08-19T11:07:15;72165.81;;;24.57
64600;BMP280;6553;48.412;9.514;2022-08-19T11:09:42;72174.72;;;24.57
64600;BMP280;6553;48.412;9.514;2022-08-19T11:12:09;72167.56;;;24.56
64600;BMP280;6553;48.412;9.514;2022-08-19T11:14:36;72163.16;;;24.54
64600;BMP280;6553;48.412;9.514;2022-08-19T11:17:04;72168.06;;;24.56
64600;BMP280;6553;48.412;9.514;2022-08-19T11:19:31;72168.06;;;24.56
64600;BMP280;6553;48.412;9.514;2022-08-19T11:21:57;72168.06;;;24.56
64600;BMP280;6553;48.412;9.514;2022-08-19T11:24:26;72168.22;;;24.54
64600;BMP280;6553;48.412;9.514;2022-08-19T11:26:58;72168.63;;;24.57
64600;BMP280;6553;48.412;9.514;2022-08-19T11:29:25;72167.03;;;24.55
64600;BMP280;6553;48.412;9.514;2022-08-19T11:31:53;72171.41;;;24.57
64600;BMP280;6553;48.412;9.514;2022-08-19T11:34:26;72169.81;;;24.55
64600;BMP280;6553;48.412;9.514;2022-08-19T11:36:54;72168.63;;;24.57
64600;BMP280;6553;48.412;9.514;2022-08-19T11:39:24;72168.06;;;24.56
64600;BMP280;6553;48.412;9.514;2022-08-19T11:41:51;72167.03;;;24.55
64600;BMP280;6553;48.412;9.514;2022-08-19T11:44:17;72177.13;;;24.54
64600;BMP280;6553;48.412;9.514;2022-08-19T11:46:44;72171.41;;;24.57
64600;BMP280;6553;48.412;9.514;2022-08-19T11:49:16;72168.06;;;24.56
64600;BMP280;6553;48.412;9.514;2022-08-19T11:51:44;72158.78;;;24.53
64600;BMP280;6553;48.412;9.514;2022-08-19T11:54:13;72164.22;;;24.55
64600;BMP280;6553;48.412;9.514;2022-08-19T11:56:40;72161.97;;;24.56
64600;BMP280;6553;48.412;9.514;2022-08-19T11:59:06;72165.97;;;24.54
64600;BMP280;6553;48.412;9.514;2022-08-19T12:01:33;72165.97;;;24.54
64600;BMP280;6553;48.412;9.514;2022-08-19T12:04:00;72165.97;;;24.54
64600;BMP280;6553;48.412;9.514;2022-08-19T12:06:29;72163.16;;;24.54
64600;BMP280;6553;48.412;9.514;2022-08-19T12:09:02;72164.22;;;24.55
64600;BMP280;6553;48.412;9.514;2022-08-19T12:11:28;72160.38;;;24.54
64600;BMP280;6553;48.412;9.514;2022-08-19T12:13:54;72164.34;;;24.53
64600;BMP280;6553;48.412;9.514;2022-08-19T12:16:26;72168.75;;;24.54
64600;BMP280;6553;48.412;9.514;2022-08-19T12:18:54;72157.19;;;24.51
64600;BMP280;6553;48.412;9.514;2022-08-19T12:21:25;72164.88;;;24.53
64600;BMP280;6553;48.412;9.514;2022-08-19T12:23:56;72162.25;;;24.51
64600;BMP280;6553;48.412;9.514;2022-08-19T12:26:23;72171.53;;;24.54
64600;BMP280;6553;48.412;9.514;2022-08-19T12:28:49;72167.69;;;24.53
64600;BMP280;6553;48.412;9.514;2022-08-19T12:31:16;72163.28;;;24.52
64600;BMP280;6553;48.412;9.514;2022-08-19T12:33:42;72163.84;;;24.52
64600;BMP280;6553;48.412;9.514;2022-08-19T12:36:11;72162.63;;;24.54
64600;BMP280;6553;48.412;9.514;2022-08-19T12:38:38;72162.09;;;24.53
64600;BMP280;6553;48.412;9.514;2022-08-19T12:41:06;72155.06;;;24.49
64600;BMP280;6553;48.412;9.514;2022-08-19T12:43:34;72162.63;;;24.54
64600;BMP280;6553;48.412;9.514;2022-08-19T12:46:01;72165.44;;;24.54
64600;BMP280;6553;48.412;9.514;2022-08-19T12:48:27;72161.16;;;24.50
64600;BMP280;6553;48.412;9.514;2022-08-19T12:50:53;72161.69;;;24.50
64600;BMP280;6553;48.412;9.514;2022-08-19T12:53:19;72161.16;;;24.50
64600;BMP280;6553;48.412;9.514;2022-08-19T12:55:45;72152.94;;;24.47
64600;BMP280;6553;48.412;9.514;2022-08-19T12:58:12;72161.56;;;24.53
64600;BMP280;6553;48.412;9.514;2022-08-19T13:00:39;72159.44;;;24.51
64600;BMP280;6553;48.412;9.514;2022-08-19T13:03:05;72169.41;;;24.52
64600;BMP280;6553;48.412;9.514;2022-08-19T13:05:33;72163.44;;;24.49
64600;BMP280;6553;48.412;9.514;2022-08-19T13:08:00;72160.50;;;24.52
64600;BMP280;6553;48.412;9.514;2022-08-19T13:10:35;72160.13;;;24.49
64600;BMP280;6553;48.412;9.514;2022-08-19T13:13:04;72163.97;;;24.50
64600;BMP280;6553;48.412;9.514;2022-08-19T13:15:36;72159.44;;;24.51
64600;BMP280;6553;48.412;9.514;2022-08-19T13:18:03;72157.44;;;24.46
64600;BMP280;6553;48.412;9.514;2022-08-19T13:20:29;72159.56;;;24.48
64600;BMP280;6553;48.412;9.514;2022-08-19T13:22:55;72162.75;;;24.51
64600;BMP280;6553;48.412;9.514;2022-08-19T13:25:23;72166.63;;;24.52
64600;BMP280;6553;48.412;9.514;2022-08-19T13:27:50;72163.28;;;24.52
64600;BMP280;6553;48.412;9.514;2022-08-19T13:30:19;72163.44;;;24.49
64600;BMP280;6553;48.412;9.514;2022-08-19T13:33:04;72166.63;;;24.52
64600;BMP280;6553;48.412;9.514;2022-08-19T13:35:38;72158.78;;;24.53
64600;BMP280;6553;48.412;9.514;2022-08-19T13:38:04;72162.75;;;24.51
64600;BMP280;6553;48.412;9.514;2022-08-19T13:40:33;72165.03;;;24.51
64600;BMP280;6553;48.412;9.514;2022-08-19T13:43:00;72163.84;;;24.52
64600;BMP280;6553;48.412;9.514;2022-08-19T13:45:29;72158.78;;;24.53
64600;BMP280;6553;48.412;9.514;2022-08-19T13:47:56;72158.91;;;24.50
64600;BMP280;6553;48.412;9.514;2022-08-19T13:50:27;72166.63;;;24.52
64600;BMP280;6553;48.412;9.514;2022-08-19T13:52:55;72163.84;;;24.52
64600;BMP280;6553;48.412;9.514;2022-08-19T13:55:22;72162.75;;;24.51
64600;BMP280;6553;48.412;9.514;2022-08-19T13:57:53;72162.75;;;24.51
64600;BMP280;6553;48.412;9.514;2022-08-19T14:00:21;72161.03;;;24.52
64600;BMP280;6553;48.412;9.514;2022-08-19T14:02:51;72161.69;;;24.50
64600;BMP280;6553;48.412;9.514;2022-08-19T14:05:18;72167.13;;;24.53
64600;BMP280;6553;48.412;9.514;2022-08-19T14:07:45;72156.78;;;24.48
64600;BMP280;6553;48.412;9.514;2022-08-19T14:10:12;72164.88;;;24.53
64600;BMP280;6553;48.412;9.514;2022-08-19T14:12:39;72165.53;;;24.51
64600;BMP280;6553;48.412;9.514;2022-08-19T14:15:08;72161.69;;;24.50
64600;BMP280;6553;48.412;9.514;2022-08-19T14:17:34;72161.16;;;24.50
64600;BMP280;6553;48.412;9.514;2022-08-19T14:20:06;72165.53;;;24.51
64600;BMP280;6553;48.412;9.514;2022-08-19T14:22:36;72169.94;;;24.53
64600;BMP280;6553;48.412;9.514;2022-08-19T14:25:06;72168.34;;;24.51
64600;BMP280;6553;48.412;9.514;2022-08-19T14:27:38;72166.22;;;24.49
64600;BMP280;6553;48.412;9.514;2022-08-19T14:30:11;72160.66;;;24.49
64600;BMP280;6553;48.412;9.514;2022-08-19T14:32:38;72163.56;;;24.47
64600;BMP280;6553;48.412;9.514;2022-08-19T14:35:05;72161.81;;;24.48
64600;BMP280;6553;48.412;9.514;2022-08-19T14:37:34;72163.97;;;24.50
64600;BMP280;6553;48.412;9.514;2022-08-19T14:40:02;72161.69;;;24.50
64600;BMP280;6553;48.412;9.514;2022-08-19T14:42:28;72159.56;;;24.48
64600;BMP280;6553;48.412;9.514;2022-08-19T14:44:58;72157.44;;;24.46
64600;BMP280;6553;48.412;9.514;2022-08-19T14:47:25;72166.22;;;24.49